Time,TemperatureF,DewpointF,PressureIn,WindDirection,WindDirectionDegrees,WindSpeedMPH,WindSpeedGustMPH,Humidity,HourlyPrecipIn,Conditions,Clouds,dailyrainin,SolarRadiationWatts/m^2,SoftwareType,DateUTC
2013-06-05 00:01:00,51.0,43.4,30.09,South,189,0.0,0.0,75,0.00,,BKN250,0.00,0.00,VWS V14.01,2013-06-05 04:01:00,
2013-06-05 00:06:00,50.8,43.2,30.09,South,189,0.0,0.0,75,0.00,,BKN250,0.00,0.00,VWS V14.01,2013-06-05 04:06:00,
2013-06-05 00:11:00,50.5,42.9,30.09,South,189,0.0,0.0,75,0.00,,BKN250,0.00,0.00,VWS V14.01,2013-06-05 04:11:00,
2013-06-05 00:16:00,50.4,42.8,30.09,South,189,0.0,0.0,75,0.00,,BKN250,0.00,0.00,VWS V14.01,2013-06-05 04:16:00,
2013-06-05 00:21:00,50.2,42.6,30.09,South,189,0.0,0.0,75,0.00,,BKN250,0.00,0.00,VWS V14.01,2013-06-05 04:21:00,
2013-06-05 00:26:00,50.1,42.5,30.09,South,189,0.0,0.0,75,0.00,,BKN250,0.00,0.00,VWS V14.01,2013-06-05 04:26:00,
2013-06-05 00:32:00,49.9,42.7,30.09,South,189,0.0,0.0,76,0.00,,BKN250,0.00,0.00,VWS V14.01,2013-06-05 04:32:00,
2013-06-05 00:37:00,49.8,42.5,30.09,South,189,0.0,0.0,76,0.00,,BKN250,0.00,0.00,VWS V14.01,2013-06-05 04:37:00,
2013-06-05 00:42:00,49.5,42.3,30.09,South,189,0.0,0.0,76,0.00,,BKN250,0.00,0.00,VWS V14.01,2013-06-05 04:42:00,
2013-06-05 00:47:00,49.5,42.6,30.09,South,189,0.0,0.0,77,0.00,,BKN250,0.00,0.00,VWS V14.01,2013-06-05 04:47:00,
2013-06-05 00:52:00,49.4,42.8,30.09,South,189,0.0,0.0,78,0.00,,BKN250,0.00,0.00,VWS V14.01,2013-06-05 04:52:00,
2013-06-05 00:57:00,49.4,42.8,30.09,South,189,0.0,0.0,78,0.00,,BKN250,0.00,0.00,VWS V14.01,2013-06-05 04:57:00,
2013-06-05 01:02:00,49.2,42.6,30.09,South,189,0.0,0.0,78,0.00,,BKN250,0.00,0.00,VWS V14.01,2013-06-05 05:02:00,
2013-06-05 01:07:00,49.1,42.5,30.09,South,189,0.0,0.0,78,0.00,,BKN250,0.00,0.00,VWS V14.01,2013-06-05 05:07:00,
2013-06-05 01:12:00,48.9,42.3,30.09,South,189,0.0,0.0,78,0.00,,BKN250,0.00,0.00,VWS V14.01,2013-06-05 05:12:00,
2013-06-05 01:17:00,48.9,42.3,30.09,South,189,0.0,0.0,78,0.00,,BKN250,0.00,0.00,VWS V14.01,2013-06-05 05:17:00,
2013-06-05 01:22:00,48.8,42.3,30.09,South,189,0.0,0.0,78,0.00,,BKN250,0.00,0.00,VWS V14.01,2013-06-05 05:22:00,
2013-06-05 01:27:00,48.6,42.1,30.09,South,189,0.0,0.0,78,0.00,,BKN250,0.00,0.00,VWS V14.01,2013-06-05 05:27:00,
2013-06-05 01:32:00,48.6,42.4,30.08,South,189,0.0,0.0,79,0.00,,BKN250,0.00,0.00,VWS V14.01,2013-06-05 05:32:00,
2013-06-05 01:37:00,48.6,42.4,30.08,South,189,0.0,0.0,79,0.00,,BKN250,0.00,0.00,VWS V14.01,2013-06-05 05:37:00,
2013-06-05 01:42:00,48.6,43.0,30.08,South,189,0.0,0.0,81,0.00,,BKN250,0.00,0.00,VWS V14.01,2013-06-05 05:42:00,
2013-06-05 01:47:00,48.5,42.6,30.09,South,189,0.0,0.0,80,0.00,,BKN250,0.00,0.00,VWS V14.01,2013-06-05 05:47:00,
2013-06-05 01:52:00,48.5,43.0,30.09,South,189,0.0,0.0,81,0.00,,BKN250,0.00,0.00,VWS V14.01,2013-06-05 05:52:00,
2013-06-05 01:57:00,48.5,43.0,30.09,South,189,0.0,0.0,81,0.00,,BKN250,0.00,0.00,VWS V14.01,2013-06-05 05:57:00,
2013-06-05 02:02:00,48.5,43.0,30.09,South,189,0.0,0.0,81,0.00,,BKN250,0.00,0.00,VWS V14.01,2013-06-05 06:02:00,
2013-06-05 02:07:00,48.3,42.8,30.09,South,189,0.0,0.0,81,0.00,,BKN250,0.00,0.00,VWS V14.01,2013-06-05 06:07:00,
2013-06-05 02:12:00,48.3,42.8,30.09,South,189,0.0,0.0,81,0.00,,BKN250,0.00,0.00,VWS V14.01,2013-06-05 06:12:00,
2013-06-05 02:17:00,48.3,42.8,30.09,South,189,0.0,0.0,81,0.00,,BKN250,0.00,0.00,VWS V14.01,2013-06-05 06:17:00,
2013-06-05 02:22:00,48.3,43.1,30.09,South,189,0.0,0.0,82,0.00,,BKN250,0.00,0.00,VWS V14.01,2013-06-05 06:22:00,
2013-06-05 02:27:00,48.2,43.0,30.09,South,189,0.0,0.0,82,0.00,,BKN250,0.00,0.00,VWS V14.01,2013-06-05 06:27:00,
2013-06-05 02:32:00,48.3,43.4,30.09,South,189,0.0,0.0,83,0.00,,BKN250,0.00,0.00,VWS V14.01,2013-06-05 06:32:00,
2013-06-05 02:37:00,48.3,43.4,30.09,South,189,0.0,0.0,83,0.00,,BKN250,0.00,0.00,VWS V14.01,2013-06-05 06:37:00,
2013-06-05 02:42:00,48.3,43.4,30.09,South,189,0.0,0.0,83,0.00,,BKN250,0.00,0.00,VWS V14.01,2013-06-05 06:42:00,
2013-06-05 02:47:00,48.3,43.4,30.08,South,189,0.0,0.0,83,0.00,,BKN250,0.00,0.00,VWS V14.01,2013-06-05 06:47:00,
2013-06-05 02:52:00,48.5,43.9,30.08,South,189,0.0,0.0,84,0.00,,BKN250,0.00,0.00,VWS V14.01,2013-06-05 06:52:00,
2013-06-05 02:57:00,48.5,43.9,30.08,South,189,0.0,0.0,84,0.00,,BKN250,0.00,0.00,VWS V14.01,2013-06-05 06:57:00,
2013-06-05 03:02:00,48.5,43.9,30.08,South,189,0.0,0.0,84,0.00,,BKN250,0.00,0.00,VWS V14.01,2013-06-05 07:02:00,
2013-06-05 03:07:00,48.5,43.9,30.08,South,189,0.0,0.0,84,0.00,,BKN250,0.00,0.00,VWS V14.01,2013-06-05 07:07:00,
2013-06-05 03:12:00,48.3,43.7,30.08,South,189,0.0,0.0,84,0.00,,BKN250,0.00,0.00,VWS V14.01,2013-06-05 07:12:00,
2013-06-05 03:17:00,48.3,43.7,30.08,South,189,0.0,0.0,84,0.00,,BKN250,0.00,0.00,VWS V14.01,2013-06-05 07:17:00,
2013-06-05 03:22:00,48.3,43.7,30.08,South,189,0.0,0.0,84,0.00,,BKN250,0.00,0.00,VWS V14.01,2013-06-05 07:22:00,
2013-06-05 03:27:00,48.2,43.6,30.08,South,189,0.0,0.0,84,0.00,,BKN250,0.00,0.00,VWS V14.01,2013-06-05 07:27:00,
2013-06-05 03:32:00,48.2,43.6,30.08,South,189,0.0,0.0,84,0.00,,BKN250,0.00,0.00,VWS V14.01,2013-06-05 07:32:00,
2013-06-05 03:37:00,48.0,43.4,30.08,South,189,0.0,0.0,84,0.00,,BKN250,0.00,0.00,VWS V14.01,2013-06-05 07:37:00,
2013-06-05 03:42:00,48.0,43.4,30.08,South,189,0.0,0.0,84,0.00,,BKN250,0.00,0.00,VWS V14.01,2013-06-05 07:42:00,
2013-06-05 03:47:00,48.0,43.4,30.07,South,189,0.0,0.0,84,0.00,,BKN250,0.00,0.00,VWS V14.01,2013-06-05 07:47:00,
2013-06-05 03:52:00,47.9,43.3,30.07,South,189,0.0,0.0,84,0.00,,BKN250,0.00,0.00,VWS V14.01,2013-06-05 07:52:00,
2013-06-05 03:57:00,47.9,43.3,30.07,South,189,0.0,0.0,84,0.00,,BKN250,0.00,0.00,VWS V14.01,2013-06-05 07:57:00,
2013-06-05 04:02:00,47.9,43.3,30.07,South,189,0.0,0.0,84,0.00,,BKN250,0.00,0.00,VWS V14.01,2013-06-05 08:02:00,
2013-06-05 04:07:00,48.0,43.7,30.07,South,189,0.0,0.0,85,0.00,,BKN250,0.00,0.00,VWS V14.01,2013-06-05 08:07:00,
2013-06-05 04:12:00,47.9,43.6,30.07,South,189,0.0,0.0,85,0.00,,BKN250,0.00,0.00,VWS V14.01,2013-06-05 08:12:00,
2013-06-05 04:17:00,47.9,43.3,30.07,South,189,0.0,0.0,84,0.00,,BKN250,0.00,0.00,VWS V14.01,2013-06-05 08:17:00,
2013-06-05 04:22:00,47.9,43.6,30.07,South,189,0.0,0.0,85,0.00,,BKN250,0.00,0.00,VWS V14.01,2013-06-05 08:22:00,
2013-06-05 04:27:00,47.9,43.6,30.07,South,189,0.0,0.0,85,0.00,,BKN250,0.00,0.00,VWS V14.01,2013-06-05 08:27:00,
2013-06-05 04:32:00,47.9,43.6,30.07,South,189,0.0,0.0,85,0.00,,BKN250,0.00,0.00,VWS V14.01,2013-06-05 08:32:00,
2013-06-05 04:37:00,47.9,43.6,30.07,South,189,0.0,0.0,85,0.00,,BKN250,0.00,0.00,VWS V14.01,2013-06-05 08:37:00,
2013-06-05 04:42:00,47.7,43.4,30.07,South,189,0.0,0.0,85,0.00,,BKN250,0.00,0.00,VWS V14.01,2013-06-05 08:42:00,
2013-06-05 04:47:00,47.7,43.4,30.07,South,189,0.0,0.0,85,0.00,,BKN250,0.00,0.00,VWS V14.01,2013-06-05 08:47:00,
2013-06-05 04:52:00,47.7,43.4,30.07,South,189,0.0,0.0,85,0.00,,BKN250,0.00,0.00,VWS V14.01,2013-06-05 08:52:00,
2013-06-05 04:57:00,47.7,43.4,30.07,South,189,0.0,0.0,85,0.00,,BKN250,0.00,0.00,VWS V14.01,2013-06-05 08:57:00,
2013-06-05 05:02:00,47.7,43.4,30.07,South,189,0.0,0.0,85,0.00,,BKN250,0.00,0.00,VWS V14.01,2013-06-05 09:02:00,
2013-06-05 05:07:00,47.7,43.7,30.07,South,189,0.0,0.0,86,0.00,,BKN250,0.00,0.00,VWS V14.01,2013-06-05 09:07:00,
2013-06-05 05:12:00,47.9,43.9,30.07,South,189,0.0,0.0,86,0.00,,BKN250,0.00,0.00,VWS V14.01,2013-06-05 09:12:00,
2013-06-05 05:17:00,47.9,43.9,30.08,South,189,0.0,0.0,86,0.00,,BKN250,0.00,0.00,VWS V14.01,2013-06-05 09:17:00,
2013-06-05 05:22:00,47.9,43.9,30.08,South,189,0.0,0.0,86,0.00,,BKN250,0.00,0.00,VWS V14.01,2013-06-05 09:22:00,
2013-06-05 05:27:00,47.9,43.9,30.08,South,189,0.0,0.0,86,0.00,,BKN250,0.00,0.00,VWS V14.01,2013-06-05 09:27:00,
2013-06-05 05:32:00,47.7,43.7,30.07,South,189,0.0,0.0,86,0.00,,BKN250,0.00,0.00,VWS V14.01,2013-06-05 09:32:00,
2013-06-05 05:37:00,47.7,43.7,30.07,South,189,0.0,0.0,86,0.00,,BKN250,0.00,0.00,VWS V14.01,2013-06-05 09:37:00,
2013-06-05 05:42:00,47.7,43.7,30.07,South,189,0.0,0.0,86,0.00,,BKN250,0.00,0.00,VWS V14.01,2013-06-05 09:42:00,
2013-06-05 05:47:00,47.7,44.0,30.07,South,189,0.0,0.0,87,0.00,,BKN250,0.00,0.00,VWS V14.01,2013-06-05 09:47:00,
2013-06-05 05:52:00,47.7,44.0,30.07,South,189,0.0,0.0,87,0.00,,BKN250,0.00,0.00,VWS V14.01,2013-06-05 09:52:00,
2013-06-05 05:57:00,47.7,44.0,30.07,South,189,0.0,0.0,87,0.00,,BKN250,0.00,0.00,VWS V14.01,2013-06-05 09:57:00,
2013-06-05 06:02:00,47.7,44.0,30.07,South,189,0.0,0.0,87,0.00,,BKN250,0.00,0.00,VWS V14.01,2013-06-05 10:02:00,
2013-06-05 06:07:00,47.7,44.0,30.07,South,189,0.0,0.0,87,0.00,,BKN250,0.00,0.00,VWS V14.01,2013-06-05 10:07:00,
2013-06-05 06:12:00,47.7,44.0,30.07,South,189,0.0,0.0,87,0.00,,BKN250,0.00,7.00,VWS V14.01,2013-06-05 10:12:00,
2013-06-05 06:17:00,47.7,44.0,30.07,South,189,0.0,0.0,87,0.00,,BKN250,0.00,9.00,VWS V14.01,2013-06-05 10:17:00,
2013-06-05 06:22:00,47.7,44.0,30.07,South,189,0.0,0.0,87,0.00,,BKN250,0.00,11.00,VWS V14.01,2013-06-05 10:22:00,
2013-06-05 06:27:00,47.9,44.2,30.07,South,189,0.0,0.0,87,0.00,,BKN250,0.00,14.00,VWS V14.01,2013-06-05 10:27:00,
2013-06-05 06:32:00,47.9,44.5,30.08,South,189,0.0,0.0,88,0.00,,BKN250,0.00,23.00,VWS V14.01,2013-06-05 10:32:00,
2013-06-05 06:37:00,48.2,44.8,30.08,South,189,0.0,0.0,88,0.00,,BKN250,0.00,26.00,VWS V14.01,2013-06-05 10:37:00,
2013-06-05 06:42:00,48.3,44.9,30.08,South,189,0.0,0.0,88,0.00,,BKN250,0.00,28.00,VWS V14.01,2013-06-05 10:42:00,
2013-06-05 06:47:00,48.5,45.1,30.08,South,189,0.0,0.0,88,0.00,,BKN250,0.00,30.00,VWS V14.01,2013-06-05 10:47:00,
2013-06-05 06:52:00,48.6,45.2,30.08,South,189,0.0,0.0,88,0.00,,BKN250,0.00,37.00,VWS V14.01,2013-06-05 10:52:00,
2013-06-05 06:57:00,48.8,45.4,30.08,South,189,0.0,0.0,88,0.00,,BKN250,0.00,39.00,VWS V14.01,2013-06-05 10:57:00,
2013-06-05 07:02:00,49.1,45.7,30.08,South,189,0.0,0.0,88,0.00,,BKN250,0.00,42.00,VWS V14.01,2013-06-05 11:02:00,
2013-06-05 07:07:00,49.2,45.8,30.08,South,189,0.0,0.0,88,0.00,,BKN250,0.00,44.00,VWS V14.01,2013-06-05 11:07:00,
2013-06-05 07:12:00,49.4,46.3,30.08,South,189,0.0,0.0,89,0.00,,BKN250,0.00,44.00,VWS V14.01,2013-06-05 11:12:00,
2013-06-05 07:17:00,49.6,46.5,30.08,South,189,0.0,0.0,89,0.00,,BKN250,0.00,48.00,VWS V14.01,2013-06-05 11:17:00,
2013-06-05 07:22:00,49.9,46.8,30.08,South,189,0.0,0.0,89,0.00,,BKN250,0.00,56.00,VWS V14.01,2013-06-05 11:22:00,
2013-06-05 07:27:00,50.2,47.1,30.08,South,189,0.0,0.0,89,0.00,,BKN250,0.00,72.00,VWS V14.01,2013-06-05 11:27:00,
2013-06-05 07:32:00,50.5,47.4,30.08,South,189,0.0,0.0,89,0.00,,BKN250,0.00,58.00,VWS V14.01,2013-06-05 11:32:00,
2013-06-05 07:37:00,50.8,47.7,30.08,South,189,0.0,0.0,89,0.00,,BKN250,0.00,72.00,VWS V14.01,2013-06-05 11:37:00,
2013-06-05 07:42:00,51.3,48.2,30.08,South,189,0.0,0.0,89,0.00,,BKN250,0.00,197.00,VWS V14.01,2013-06-05 11:42:00,
2013-06-05 07:47:00,51.9,48.8,30.08,South,189,0.0,0.0,89,0.00,,BKN250,0.00,227.00,VWS V14.01,2013-06-05 11:47:00,
2013-06-05 07:52:00,52.9,48.8,30.08,South,189,0.0,0.0,86,0.00,,BKN250,0.00,252.00,VWS V14.01,2013-06-05 11:52:00,
2013-06-05 07:57:00,53.9,48.2,30.08,South,189,0.0,0.0,81,0.00,,BKN250,0.00,273.00,VWS V14.01,2013-06-05 11:57:00,
2013-06-05 08:02:00,55.3,47.5,30.07,SSE,168,1.0,1.0,75,0.00,,BKN250,0.00,285.00,VWS V14.01,2013-06-05 12:02:00,
2013-06-05 08:07:00,56.5,45.7,30.07,SE,136,0.0,3.0,67,0.00,,BKN250,0.00,290.00,VWS V14.01,2013-06-05 12:07:00,
2013-06-05 08:12:00,58.1,46.0,30.07,East,88,0.0,1.0,64,0.00,,BKN250,0.00,317.00,VWS V14.01,2013-06-05 12:12:00,
2013-06-05 08:17:00,59.6,45.7,30.06,SE,138,0.0,3.0,60,0.00,,BKN250,0.00,341.00,VWS V14.01,2013-06-05 12:17:00,
2013-06-05 08:22:00,60.9,46.0,30.06,SE,138,0.0,1.0,58,0.00,,BKN250,0.00,347.00,VWS V14.01,2013-06-05 12:22:00,
2013-06-05 08:27:00,61.8,45.5,30.06,SE,128,0.0,1.0,55,0.00,,BKN250,0.00,336.00,VWS V14.01,2013-06-05 12:27:00,
2013-06-05 08:32:00,62.4,44.6,30.06,SSE,158,0.0,2.0,52,0.00,,BKN250,0.00,391.00,VWS V14.01,2013-06-05 12:32:00,
2013-06-05 08:37:00,62.7,44.3,30.06,SE,145,1.0,2.0,51,0.00,,BKN250,0.00,406.00,VWS V14.01,2013-06-05 12:37:00,
2013-06-05 08:42:00,63.2,46.8,30.06,SSE,158,0.0,0.0,55,0.00,,BKN250,0.00,422.00,VWS V14.01,2013-06-05 12:42:00,
2013-06-05 08:47:00,63.9,44.4,30.06,SE,127,1.0,2.0,49,0.00,,BKN250,0.00,435.00,VWS V14.01,2013-06-05 12:47:00,
2013-06-05 08:52:00,64.3,44.8,30.06,SSE,161,0.0,0.0,49,0.00,,BKN250,0.00,450.00,VWS V14.01,2013-06-05 12:52:00,
2013-06-05 08:57:00,65.2,45.6,30.06,SSE,161,0.0,0.0,49,0.00,,BKN250,0.00,466.00,VWS V14.01,2013-06-05 12:57:00,
2013-06-05 09:02:00,65.8,45.6,30.06,East,97,1.0,1.0,48,0.00,,BKN250,0.00,484.00,VWS V14.01,2013-06-05 13:02:00,
2013-06-05 09:07:00,66.3,44.9,30.06,ENE,64,0.0,1.0,46,0.00,,BKN250,0.00,494.00,VWS V14.01,2013-06-05 13:07:00,
2013-06-05 09:12:00,66.8,45.4,30.06,ENE,76,0.0,0.0,46,0.00,,BKN250,0.00,501.00,VWS V14.01,2013-06-05 13:12:00,
2013-06-05 09:17:00,67.3,46.4,30.06,ENE,64,0.0,0.0,47,0.00,,BKN250,0.00,516.00,VWS V14.01,2013-06-05 13:17:00,
2013-06-05 09:22:00,67.9,47.0,30.06,ENE,64,0.0,1.0,47,0.00,,BKN250,0.00,531.00,VWS V14.01,2013-06-05 13:22:00,
2013-06-05 09:27:00,68.6,45.8,30.06,SE,137,0.0,3.0,44,0.00,,BKN250,0.00,545.00,VWS V14.01,2013-06-05 13:27:00,
2013-06-05 09:32:00,69.1,48.6,30.05,SE,124,0.0,0.0,48,0.00,,BKN250,0.00,579.00,VWS V14.01,2013-06-05 13:32:00,
2013-06-05 09:37:00,69.3,48.2,30.05,SE,124,1.0,1.0,47,0.00,,BKN250,0.00,646.00,VWS V14.01,2013-06-05 13:37:00,
2013-06-05 09:42:00,69.6,46.1,30.05,ESE,104,0.0,0.0,43,0.00,,BKN250,0.00,406.00,VWS V14.01,2013-06-05 13:42:00,
2013-06-05 09:47:00,69.6,46.1,30.06,ESE,109,0.0,1.0,43,0.00,,BKN250,0.00,528.00,VWS V14.01,2013-06-05 13:47:00,
2013-06-05 09:52:00,69.4,46.6,30.06,ESE,110,0.0,0.0,44,0.00,,BKN250,0.00,630.00,VWS V14.01,2013-06-05 13:52:00,
2013-06-05 09:57:00,69.6,46.8,30.06,ESE,121,1.0,1.0,44,0.00,,BKN250,0.00,630.00,VWS V14.01,2013-06-05 13:57:00,
2013-06-05 10:02:00,69.4,46.0,30.05,ESE,121,0.0,0.0,43,0.00,,BKN250,0.00,426.00,VWS V14.01,2013-06-05 14:02:00,
2013-06-05 10:07:00,68.6,46.4,30.05,ESE,121,0.0,1.0,45,0.00,,BKN250,0.00,450.00,VWS V14.01,2013-06-05 14:07:00,
2013-06-05 10:12:00,68.4,46.2,30.05,WSW,254,1.0,1.0,45,0.00,,BKN250,0.00,519.00,VWS V14.01,2013-06-05 14:12:00,
2013-06-05 10:17:00,67.6,44.9,30.06,WNW,301,1.0,2.0,44,0.00,,BKN250,0.00,681.00,VWS V14.01,2013-06-05 14:17:00,
2013-06-05 10:22:00,67.9,50.2,30.06,WNW,298,0.0,0.0,53,0.00,,BKN250,0.00,676.00,VWS V14.01,2013-06-05 14:22:00,
2013-06-05 10:27:00,68.1,50.8,30.06,WNW,298,0.0,1.0,54,0.00,,BKN250,0.00,688.00,VWS V14.01,2013-06-05 14:27:00,
2013-06-05 10:32:00,68.6,52.3,30.06,WNW,298,0.0,0.0,56,0.00,,BKN250,0.00,700.00,VWS V14.01,2013-06-05 14:32:00,
2013-06-05 10:37:00,69.1,52.3,30.06,SE,127,0.0,2.0,55,0.00,,BKN250,0.00,716.00,VWS V14.01,2013-06-05 14:37:00,
2013-06-05 10:42:00,69.3,52.0,30.06,WNW,289,0.0,1.0,54,0.00,,BKN250,0.00,716.00,VWS V14.01,2013-06-05 14:42:00,
2013-06-05 10:47:00,69.1,50.8,30.04,WNW,289,0.0,3.0,52,0.00,,BKN250,0.00,709.00,VWS V14.01,2013-06-05 14:47:00,
2013-06-05 10:52:00,69.1,50.2,30.04,West,261,1.0,3.0,51,0.00,,BKN250,0.00,693.00,VWS V14.01,2013-06-05 14:52:00,
2013-06-05 10:57:00,68.6,51.8,30.04,North,359,0.0,3.0,55,0.00,,BKN250,0.00,732.00,VWS V14.01,2013-06-05 14:57:00,
2013-06-05 11:02:00,69.3,52.5,30.03,West,270,0.0,1.0,55,0.00,,SCT250,0.00,721.00,VWS V14.01,2013-06-05 15:02:00,
2013-06-05 11:07:00,69.3,51.5,30.03,WSW,254,0.0,3.0,53,0.00,,SCT250,0.00,758.00,VWS V14.01,2013-06-05 15:07:00,
2013-06-05 11:12:00,69.9,51.5,30.03,NW,306,0.0,0.0,52,0.00,,SCT250,0.00,751.00,VWS V14.01,2013-06-05 15:12:00,
2013-06-05 11:17:00,70.3,51.3,30.03,NW,306,1.0,1.0,51,0.00,,SCT250,0.00,760.00,VWS V14.01,2013-06-05 15:17:00,
2013-06-05 11:22:00,70.4,50.9,30.03,NE,37,1.0,1.0,50,0.00,,SCT250,0.00,794.00,VWS V14.01,2013-06-05 15:22:00,
2013-06-05 11:27:00,70.8,51.8,30.03,West,280,0.0,2.0,51,0.00,,SCT250,0.00,797.00,VWS V14.01,2013-06-05 15:27:00,
2013-06-05 11:32:00,71.1,52.6,30.02,West,280,0.0,1.0,52,0.00,,SCT250,0.00,808.00,VWS V14.01,2013-06-05 15:32:00,
2013-06-05 11:37:00,71.1,54.1,30.02,West,280,0.0,1.0,55,0.00,,SCT250,0.00,818.00,VWS V14.01,2013-06-05 15:37:00,
2013-06-05 11:42:00,70.9,52.4,30.02,West,275,0.0,3.0,52,0.00,,SCT250,0.00,823.00,VWS V14.01,2013-06-05 15:42:00,
2013-06-05 11:47:00,69.9,51.5,30.02,WNW,284,1.0,6.0,52,0.00,,SCT250,0.00,834.00,VWS V14.01,2013-06-05 15:47:00,
2013-06-05 11:52:00,69.3,51.5,30.02,West,268,0.0,2.0,53,0.00,,SCT250,0.00,832.00,VWS V14.01,2013-06-05 15:52:00,
2013-06-05 11:57:00,69.6,52.7,30.02,East,88,0.0,2.0,55,0.00,,SCT250,0.00,845.00,VWS V14.01,2013-06-05 15:57:00,
2013-06-05 12:02:00,70.1,52.2,30.02,South,172,3.0,3.0,53,0.00,,SCT250,0.00,853.00,VWS V14.01,2013-06-05 16:02:00,
2013-06-05 12:07:00,70.1,53.2,30.02,WNW,298,0.0,3.0,55,0.00,,SCT250,0.00,850.00,VWS V14.01,2013-06-05 16:07:00,
2013-06-05 12:12:00,70.1,53.2,30.02,WNW,289,1.0,1.0,55,0.00,,SCT250,0.00,862.00,VWS V14.01,2013-06-05 16:12:00,
2013-06-05 12:17:00,69.9,52.5,30.00,North,0,0.0,2.0,54,0.00,,SCT250,0.00,873.00,VWS V14.01,2013-06-05 16:17:00,
2013-06-05 12:22:00,70.4,53.0,30.00,West,268,3.0,4.0,54,0.00,,SCT250,0.00,874.00,VWS V14.01,2013-06-05 16:22:00,
2013-06-05 12:27:00,70.6,52.1,30.00,NNE,14,0.0,4.0,52,0.00,,SCT250,0.00,867.00,VWS V14.01,2013-06-05 16:27:00,
2013-06-05 12:32:00,70.8,53.8,30.00,NW,316,1.0,2.0,55,0.00,,SCT250,0.00,887.00,VWS V14.01,2013-06-05 16:32:00,
2013-06-05 12:37:00,70.6,54.6,30.00,WNW,287,0.0,6.0,57,0.00,,SCT250,0.00,889.00,VWS V14.01,2013-06-05 16:37:00,
2013-06-05 12:42:00,70.9,54.9,30.00,West,280,2.0,2.0,57,0.00,,SCT250,0.00,885.00,VWS V14.01,2013-06-05 16:42:00,
2013-06-05 12:47:00,71.3,54.3,30.00,West,267,1.0,2.0,55,0.00,,SCT250,0.00,882.00,VWS V14.01,2013-06-05 16:47:00,
2013-06-05 12:52:00,71.3,53.8,30.00,WNW,301,0.0,3.0,54,0.00,,SCT250,0.00,889.00,VWS V14.01,2013-06-05 16:52:00,
2013-06-05 12:57:00,71.1,54.6,30.00,WNW,284,6.0,6.0,56,0.00,,SCT250,0.00,894.00,VWS V14.01,2013-06-05 16:57:00,
2013-06-05 13:02:00,70.8,54.8,30.00,West,280,0.0,2.0,57,0.00,,FEW250,0.00,889.00,VWS V14.01,2013-06-05 17:02:00,
2013-06-05 13:07:00,71.1,55.6,30.00,ESE,107,0.0,5.0,58,0.00,,FEW250,0.00,892.00,VWS V14.01,2013-06-05 17:07:00,
2013-06-05 13:12:00,71.5,53.5,30.00,NE,41,1.0,1.0,53,0.00,,FEW250,0.00,899.00,VWS V14.01,2013-06-05 17:12:00,
2013-06-05 13:17:00,71.5,54.5,29.99,NNE,21,2.0,2.0,55,0.00,,FEW250,0.00,897.00,VWS V14.01,2013-06-05 17:17:00,
2013-06-05 13:22:00,71.5,54.5,29.99,SE,133,0.0,2.0,55,0.00,,FEW250,0.00,903.00,VWS V14.01,2013-06-05 17:22:00,
2013-06-05 13:27:00,71.6,54.6,29.99,SSW,210,1.0,2.0,55,0.00,,FEW250,0.00,897.00,VWS V14.01,2013-06-05 17:27:00,
2013-06-05 13:32:00,71.6,54.1,29.99,North,0,0.0,2.0,54,0.00,,FEW250,0.00,897.00,VWS V14.01,2013-06-05 17:32:00,
2013-06-05 13:37:00,71.5,54.0,29.99,NE,37,5.0,5.0,54,0.00,,FEW250,0.00,899.00,VWS V14.01,2013-06-05 17:37:00,
2013-06-05 13:42:00,71.3,54.3,29.99,North,3,0.0,1.0,55,0.00,,FEW250,0.00,839.00,VWS V14.01,2013-06-05 17:42:00,
2013-06-05 13:47:00,70.9,54.0,29.99,SE,131,0.0,3.0,55,0.00,,FEW250,0.00,862.00,VWS V14.01,2013-06-05 17:47:00,
2013-06-05 13:52:00,70.9,55.4,29.99,SSW,200,0.0,2.0,58,0.00,,FEW250,0.00,874.00,VWS V14.01,2013-06-05 17:52:00,
2013-06-05 13:57:00,70.8,54.3,29.99,SE,140,0.0,2.0,56,0.00,,FEW250,0.00,848.00,VWS V14.01,2013-06-05 17:57:00,
2013-06-05 14:02:00,70.9,52.4,29.99,WSW,247,0.0,3.0,52,0.00,,FEW250,0.00,869.00,VWS V14.01,2013-06-05 18:02:00,
2013-06-05 14:07:00,70.6,54.6,29.99,SSW,205,1.0,3.0,57,0.00,,FEW250,0.00,885.00,VWS V14.01,2013-06-05 18:07:00,
2013-06-05 14:12:00,70.6,54.6,29.99,SE,137,0.0,0.0,57,0.00,,FEW250,0.00,880.00,VWS V14.01,2013-06-05 18:12:00,
2013-06-05 14:17:00,70.9,54.4,29.99,SE,126,0.0,1.0,56,0.00,,FEW250,0.00,878.00,VWS V14.01,2013-06-05 18:17:00,
2013-06-05 14:22:00,71.1,53.1,29.99,ENE,76,0.0,1.0,53,0.00,,FEW250,0.00,882.00,VWS V14.01,2013-06-05 18:22:00,
2013-06-05 14:27:00,71.3,52.8,29.99,South,189,3.0,4.0,52,0.00,,FEW250,0.00,864.00,VWS V14.01,2013-06-05 18:27:00,
2013-06-05 14:32:00,71.5,54.5,29.99,SSW,195,0.0,3.0,55,0.00,,FEW250,0.00,869.00,VWS V14.01,2013-06-05 18:32:00,
2013-06-05 14:37:00,71.8,54.8,29.99,SW,234,1.0,3.0,55,0.00,,FEW250,0.00,866.00,VWS V14.01,2013-06-05 18:37:00,
2013-06-05 14:42:00,71.8,51.6,29.99,WNW,298,0.0,1.0,49,0.00,,FEW250,0.00,873.00,VWS V14.01,2013-06-05 18:42:00,
2013-06-05 14:47:00,71.8,52.2,29.99,SSW,193,0.0,3.0,50,0.00,,FEW250,0.00,890.00,VWS V14.01,2013-06-05 18:47:00,
2013-06-05 14:52:00,71.8,52.7,29.99,NE,52,1.0,3.0,51,0.00,,FEW250,0.00,802.00,VWS V14.01,2013-06-05 18:52:00,
2013-06-05 14:57:00,71.6,52.5,29.99,SE,137,0.0,8.0,51,0.00,,FEW250,0.00,860.00,VWS V14.01,2013-06-05 18:57:00,
2013-06-05 15:02:00,71.6,52.0,29.99,ENE,76,0.0,5.0,50,0.00,,FEW250,0.00,855.00,VWS V14.01,2013-06-05 19:02:00,
2013-06-05 15:07:00,71.6,53.1,29.99,SSE,148,0.0,5.0,52,0.00,,FEW250,0.00,859.00,VWS V14.01,2013-06-05 19:07:00,
2013-06-05 15:12:00,71.8,52.7,29.99,SSE,155,0.0,0.0,51,0.00,,FEW250,0.00,832.00,VWS V14.01,2013-06-05 19:12:00,
2013-06-05 15:17:00,72.1,54.6,29.98,ESE,104,0.0,2.0,54,0.00,,FEW250,0.00,832.00,VWS V14.01,2013-06-05 19:17:00,
2013-06-05 15:22:00,72.1,53.0,29.98,SSW,198,3.0,3.0,51,0.00,,FEW250,0.00,825.00,VWS V14.01,2013-06-05 19:22:00,
2013-06-05 15:27:00,72.1,53.0,29.98,North,0,0.0,3.0,51,0.00,,FEW250,0.00,811.00,VWS V14.01,2013-06-05 19:27:00,
2013-06-05 15:32:00,72.7,54.6,29.98,WNW,296,0.0,0.0,53,0.00,,FEW250,0.00,811.00,VWS V14.01,2013-06-05 19:32:00,
2013-06-05 15:37:00,73.3,55.2,29.98,SW,220,0.0,3.0,53,0.00,,FEW250,0.00,802.00,VWS V14.01,2013-06-05 19:37:00,
2013-06-05 15:42:00,73.5,55.3,29.98,SSW,198,0.0,2.0,53,0.00,,FEW250,0.00,781.00,VWS V14.01,2013-06-05 19:42:00,
2013-06-05 15:47:00,73.3,53.6,29.97,NNW,346,0.0,2.0,50,0.00,,FEW250,0.00,757.00,VWS V14.01,2013-06-05 19:47:00,
2013-06-05 15:52:00,73.2,54.0,29.97,East,97,0.0,2.0,51,0.00,,FEW250,0.00,748.00,VWS V14.01,2013-06-05 19:52:00,
2013-06-05 15:57:00,73.0,52.7,29.97,North,359,0.0,7.0,49,0.00,,FEW250,0.00,750.00,VWS V14.01,2013-06-05 19:57:00,
2013-06-05 16:02:00,72.8,54.7,29.96,ENE,72,0.0,2.0,53,0.00,,FEW250,0.00,746.00,VWS V14.01,2013-06-05 20:02:00,
2013-06-05 16:07:00,72.8,52.5,29.96,SSW,200,0.0,4.0,49,0.00,,FEW250,0.00,723.00,VWS V14.01,2013-06-05 20:07:00,
2013-06-05 16:12:00,73.0,54.9,29.96,NNW,347,0.0,1.0,53,0.00,,FEW250,0.00,700.00,VWS V14.01,2013-06-05 20:12:00,
2013-06-05 16:17:00,73.2,52.9,29.95,North,6,0.0,1.0,49,0.00,,FEW250,0.00,702.00,VWS V14.01,2013-06-05 20:17:00,
2013-06-05 16:22:00,73.2,52.4,29.95,SSE,162,0.0,1.0,48,0.00,,FEW250,0.00,704.00,VWS V14.01,2013-06-05 20:22:00,
2013-06-05 16:27:00,73.2,51.8,29.95,East,92,0.0,7.0,47,0.00,,FEW250,0.00,670.00,VWS V14.01,2013-06-05 20:27:00,
2013-06-05 16:32:00,73.0,52.7,29.94,ESE,102,0.0,0.0,49,0.00,,FEW250,0.00,649.00,VWS V14.01,2013-06-05 20:32:00,
2013-06-05 16:37:00,72.7,51.9,29.94,East,80,0.0,2.0,48,0.00,,FEW250,0.00,625.00,VWS V14.01,2013-06-05 20:37:00,
2013-06-05 16:42:00,72.7,51.9,29.94,NE,54,0.0,3.0,48,0.00,,FEW250,0.00,633.00,VWS V14.01,2013-06-05 20:42:00,
2013-06-05 16:47:00,72.8,52.5,29.93,SE,124,0.0,3.0,49,0.00,,FEW250,0.00,619.00,VWS V14.01,2013-06-05 20:47:00,
2013-06-05 16:52:00,72.5,52.3,29.93,WSW,257,1.0,2.0,49,0.00,,FEW250,0.00,616.00,VWS V14.01,2013-06-05 20:52:00,
2013-06-05 16:57:00,72.3,51.5,29.93,SSE,168,0.0,2.0,48,0.00,,FEW250,0.00,574.00,VWS V14.01,2013-06-05 20:57:00,
2013-06-05 17:02:00,72.3,52.6,29.93,North,4,0.0,0.0,50,0.00,,FEW250,0.00,607.00,VWS V14.01,2013-06-05 21:02:00,
2013-06-05 17:07:00,72.1,51.9,29.93,NE,45,0.0,5.0,49,0.00,,FEW250,0.00,582.00,VWS V14.01,2013-06-05 21:07:00,
2013-06-05 17:12:00,72.3,52.1,29.93,SE,133,0.0,3.0,49,0.00,,FEW250,0.00,561.00,VWS V14.01,2013-06-05 21:12:00,
2013-06-05 17:17:00,72.1,51.3,29.93,NW,325,0.0,3.0,48,0.00,,FEW250,0.00,512.00,VWS V14.01,2013-06-05 21:17:00,
2013-06-05 17:22:00,71.8,51.1,29.93,South,176,0.0,2.0,48,0.00,,FEW250,0.00,545.00,VWS V14.01,2013-06-05 21:22:00,
2013-06-05 17:27:00,71.6,50.3,29.93,SE,124,0.0,7.0,47,0.00,,FEW250,0.00,542.00,VWS V14.01,2013-06-05 21:27:00,
2013-06-05 17:32:00,71.8,50.5,29.92,SSE,164,0.0,3.0,47,0.00,,FEW250,0.00,514.00,VWS V14.01,2013-06-05 21:32:00,
2013-06-05 17:37:00,71.6,50.9,29.92,ESE,117,0.0,3.0,48,0.00,,FEW250,0.00,491.00,VWS V14.01,2013-06-05 21:37:00,
2013-06-05 17:42:00,71.3,50.0,29.92,NNE,18,0.0,0.0,47,0.00,,FEW250,0.00,486.00,VWS V14.01,2013-06-05 21:42:00,
2013-06-05 17:47:00,71.3,51.2,29.92,NNE,18,0.0,1.0,49,0.00,,FEW250,0.00,454.00,VWS V14.01,2013-06-05 21:47:00,
2013-06-05 17:52:00,71.1,50.4,29.92,NE,34,0.0,10.0,48,0.00,,FEW250,0.00,470.00,VWS V14.01,2013-06-05 21:52:00,
2013-06-05 17:57:00,70.8,50.2,29.92,SSW,208,0.0,10.0,48,0.00,,FEW250,0.00,470.00,VWS V14.01,2013-06-05 21:57:00,
2013-06-05 18:02:00,70.6,51.1,29.92,South,181,0.0,5.0,50,0.00,,SCT250,0.00,202.00,VWS V14.01,2013-06-05 22:02:00,
2013-06-05 18:07:00,70.4,49.2,29.92,NE,52,0.0,5.0,47,0.00,,SCT250,0.00,377.00,VWS V14.01,2013-06-05 22:07:00,
2013-06-05 18:12:00,70.4,48.7,29.92,SSE,161,0.0,0.0,46,0.00,,SCT250,0.00,362.00,VWS V14.01,2013-06-05 22:12:00,
2013-06-05 18:17:00,70.6,49.4,29.91,SSE,162,0.0,0.0,47,0.00,,SCT250,0.00,326.00,VWS V14.01,2013-06-05 22:17:00,
2013-06-05 18:22:00,70.8,49.6,29.91,SSE,161,0.0,0.0,47,0.00,,SCT250,0.00,355.00,VWS V14.01,2013-06-05 22:22:00,
2013-06-05 18:27:00,70.9,49.1,29.91,NNE,28,0.0,2.0,46,0.00,,SCT250,0.00,326.00,VWS V14.01,2013-06-05 22:27:00,
2013-06-05 18:32:00,70.8,48.4,29.91,SSE,148,0.0,0.0,45,0.00,,SCT250,0.00,248.00,VWS V14.01,2013-06-05 22:32:00,
2013-06-05 18:37:00,70.1,48.4,29.91,SW,232,3.0,3.0,46,0.00,,SCT250,0.00,134.00,VWS V14.01,2013-06-05 22:37:00,
2013-06-05 18:42:00,69.4,47.2,29.91,East,89,0.0,3.0,45,0.00,,SCT250,0.00,76.00,VWS V14.01,2013-06-05 22:42:00,
2013-06-05 18:47:00,68.8,47.2,29.91,SSE,167,0.0,3.0,46,0.00,,SCT250,0.00,74.00,VWS V14.01,2013-06-05 22:47:00,
2013-06-05 18:52:00,68.3,47.3,29.91,NNE,31,0.0,3.0,47,0.00,,SCT250,0.00,70.00,VWS V14.01,2013-06-05 22:52:00,
2013-06-05 18:57:00,67.9,47.5,29.91,SSE,147,0.0,4.0,48,0.00,,SCT250,0.00,56.00,VWS V14.01,2013-06-05 22:57:00,
2013-06-05 19:02:00,67.6,47.8,29.91,NE,44,0.0,1.0,49,0.00,,BKN250,0.00,51.00,VWS V14.01,2013-06-05 23:02:00,
2013-06-05 19:07:00,67.1,47.3,29.91,SE,143,0.0,6.0,49,0.00,,BKN250,0.00,49.00,VWS V14.01,2013-06-05 23:07:00,
2013-06-05 19:12:00,66.8,47.0,29.91,SE,138,0.0,0.0,49,0.00,,BKN250,0.00,51.00,VWS V14.01,2013-06-05 23:12:00,
2013-06-05 19:17:00,66.4,47.2,29.90,ESE,114,0.0,0.0,50,0.00,,BKN250,0.00,55.00,VWS V14.01,2013-06-05 23:17:00,
2013-06-05 19:22:00,66.3,47.7,29.90,SW,232,1.0,1.0,51,0.00,,BKN250,0.00,65.00,VWS V14.01,2013-06-05 23:22:00,
2013-06-05 19:27:00,66.1,47.5,29.90,NNE,27,0.0,6.0,51,0.00,,BKN250,0.00,46.00,VWS V14.01,2013-06-05 23:27:00,
2013-06-05 19:32:00,65.8,48.2,29.90,SE,144,0.0,3.0,53,0.00,,BKN250,0.00,44.00,VWS V14.01,2013-06-05 23:32:00,
2013-06-05 19:37:00,65.5,48.4,29.90,ESE,119,0.0,3.0,54,0.00,,BKN250,0.00,39.00,VWS V14.01,2013-06-05 23:37:00,
2013-06-05 19:42:00,65.2,48.6,29.90,SE,131,0.0,0.0,55,0.00,,BKN250,0.00,33.00,VWS V14.01,2013-06-05 23:42:00,
2013-06-05 19:47:00,64.8,48.3,29.90,South,175,0.0,3.0,55,0.00,,BKN250,0.00,46.00,VWS V14.01,2013-06-05 23:47:00,
2013-06-05 19:52:00,64.7,48.2,29.90,SE,127,0.0,3.0,55,0.00,,BKN250,0.00,40.00,VWS V14.01,2013-06-05 23:52:00,
2013-06-05 19:57:00,64.5,48.0,29.90,South,178,0.0,3.0,55,0.00,,BKN250,0.00,39.00,VWS V14.01,2013-06-05 23:57:00,
2013-06-05 20:02:00,64.3,48.3,29.89,North,357,0.0,2.0,56,0.00,,BKN250,0.00,40.00,VWS V14.01,2013-06-06 00:02:00,
2013-06-05 20:07:00,64.2,48.2,29.89,SSE,158,0.0,2.0,56,0.00,,BKN250,0.00,37.00,VWS V14.01,2013-06-06 00:07:00,
2013-06-05 20:12:00,64.0,48.0,29.89,ESE,121,2.0,3.0,56,0.00,,BKN250,0.00,37.00,VWS V14.01,2013-06-06 00:12:00,
2013-06-05 20:17:00,63.9,47.9,29.88,ENE,75,0.0,3.0,56,0.00,,BKN250,0.00,30.00,VWS V14.01,2013-06-06 00:17:00,
2013-06-05 20:22:00,63.9,47.9,29.88,East,83,0.0,0.0,56,0.00,,BKN250,0.00,30.00,VWS V14.01,2013-06-06 00:22:00,
2013-06-05 20:27:00,63.7,47.2,29.88,SE,128,0.0,4.0,55,0.00,,BKN250,0.00,26.00,VWS V14.01,2013-06-06 00:27:00,
2013-06-05 20:32:00,63.7,47.2,29.88,North,359,0.0,0.0,55,0.00,,BKN250,0.00,16.00,VWS V14.01,2013-06-06 00:32:00,
2013-06-05 20:37:00,63.5,47.1,29.88,North,0,0.0,0.0,55,0.00,,BKN250,0.00,14.00,VWS V14.01,2013-06-06 00:37:00,
2013-06-05 20:42:00,63.5,47.1,29.88,East,97,0.0,0.0,55,0.00,,BKN250,0.00,11.00,VWS V14.01,2013-06-06 00:42:00,
2013-06-05 20:47:00,63.4,47.5,29.88,East,97,0.0,0.0,56,0.00,,BKN250,0.00,7.00,VWS V14.01,2013-06-06 00:47:00,
2013-06-05 20:52:00,63.2,46.8,29.88,East,97,0.0,0.0,55,0.00,,BKN250,0.00,5.00,VWS V14.01,2013-06-06 00:52:00,
2013-06-05 20:57:00,63.1,47.2,29.88,East,97,0.0,0.0,56,0.00,,BKN250,0.00,0.00,VWS V14.01,2013-06-06 00:57:00,
2013-06-05 21:02:00,62.7,46.3,29.88,East,97,0.0,0.0,55,0.00,,BKN250,0.00,0.00,VWS V14.01,2013-06-06 01:02:00,
2013-06-05 21:07:00,62.4,46.0,29.88,South,171,0.0,0.0,55,0.00,,BKN250,0.00,0.00,VWS V14.01,2013-06-06 01:07:00,
2013-06-05 21:12:00,62.3,46.0,29.88,South,169,0.0,0.0,55,0.00,,BKN250,0.00,0.00,VWS V14.01,2013-06-06 01:12:00,
2013-06-05 21:17:00,62.1,45.8,29.88,SSE,168,0.0,0.0,55,0.00,,BKN250,0.00,0.00,VWS V14.01,2013-06-06 01:17:00,
2013-06-05 21:22:00,62.0,45.7,29.88,SSE,168,0.0,0.0,55,0.00,,BKN250,0.00,0.00,VWS V14.01,2013-06-06 01:22:00,
2013-06-05 21:27:00,61.8,45.5,29.88,SSW,192,0.0,0.0,55,0.00,,BKN250,0.00,0.00,VWS V14.01,2013-06-06 01:27:00,
2013-06-05 21:32:00,61.6,45.3,29.88,SSE,168,0.0,0.0,55,0.00,,BKN250,0.00,0.00,VWS V14.01,2013-06-06 01:32:00,
2013-06-05 21:37:00,61.6,45.8,29.88,SSE,168,0.0,0.0,56,0.00,,BKN250,0.00,0.00,VWS V14.01,2013-06-06 01:37:00,
2013-06-05 21:42:00,61.5,46.1,29.88,SSE,168,0.0,0.0,57,0.00,,BKN250,0.00,0.00,VWS V14.01,2013-06-06 01:42:00,
2013-06-05 21:47:00,61.3,46.4,29.89,South,182,0.0,0.0,58,0.00,,BKN250,0.00,0.00,VWS V14.01,2013-06-06 01:47:00,
2013-06-05 21:52:00,61.3,46.9,29.89,South,182,0.0,0.0,59,0.00,,BKN250,0.00,0.00,VWS V14.01,2013-06-06 01:52:00,
2013-06-05 21:57:00,61.3,46.9,29.89,South,176,0.0,0.0,59,0.00,,BKN250,0.00,0.00,VWS V14.01,2013-06-06 01:57:00,
2013-06-05 22:02:00,61.2,47.2,29.89,SSE,147,0.0,0.0,60,0.00,,BKN250,0.00,0.00,VWS V14.01,2013-06-06 02:02:00,
2013-06-05 22:07:00,61.3,47.3,29.89,SSE,151,0.0,0.0,60,0.00,,BKN250,0.00,0.00,VWS V14.01,2013-06-06 02:07:00,
2013-06-05 22:12:00,61.3,47.8,29.89,SSE,157,0.0,0.0,61,0.00,,BKN250,0.00,0.00,VWS V14.01,2013-06-06 02:12:00,
2013-06-05 22:17:00,61.3,48.2,29.89,East,92,0.0,0.0,62,0.00,,BKN250,0.00,0.00,VWS V14.01,2013-06-06 02:17:00,
2013-06-05 22:22:00,61.3,49.0,29.89,SSE,164,0.0,0.0,64,0.00,,BKN250,0.00,0.00,VWS V14.01,2013-06-06 02:22:00,
2013-06-05 22:27:00,61.5,50.0,29.89,SSW,200,0.0,1.0,66,0.00,,BKN250,0.00,0.00,VWS V14.01,2013-06-06 02:27:00,
2013-06-05 22:32:00,61.5,50.8,29.89,East,88,0.0,0.0,68,0.00,,BKN250,0.00,0.00,VWS V14.01,2013-06-06 02:32:00,
2013-06-05 22:37:00,61.5,51.2,29.89,North,359,0.0,0.0,69,0.00,,BKN250,0.00,0.00,VWS V14.01,2013-06-06 02:37:00,
2013-06-05 22:42:00,61.3,51.1,29.89,North,352,0.0,0.0,69,0.00,,BKN250,0.00,0.00,VWS V14.01,2013-06-06 02:42:00,
2013-06-05 22:47:00,61.3,51.5,29.88,North,10,0.0,0.0,70,0.00,,BKN250,0.00,0.00,VWS V14.01,2013-06-06 02:47:00,
2013-06-05 22:52:00,61.2,51.3,29.88,SSE,162,0.0,0.0,70,0.00,,BKN250,0.00,0.00,VWS V14.01,2013-06-06 02:52:00,
2013-06-05 22:57:00,61.0,51.2,29.88,SSE,162,0.0,0.0,70,0.00,,BKN250,0.00,0.00,VWS V14.01,2013-06-06 02:57:00,
2013-06-05 23:02:00,60.9,51.5,29.88,SSE,162,0.0,0.0,71,0.00,,BKN250,0.00,0.00,VWS V14.01,2013-06-06 03:02:00,
2013-06-05 23:07:00,60.7,51.2,29.88,SSE,162,0.0,0.0,71,0.00,,BKN250,0.00,0.00,VWS V14.01,2013-06-06 03:07:00,
2013-06-05 23:12:00,60.5,51.4,29.88,SSE,162,0.0,0.0,72,0.00,,BKN250,0.00,0.00,VWS V14.01,2013-06-06 03:12:00,
2013-06-05 23:17:00,60.4,51.3,29.88,SSE,162,0.0,0.0,72,0.00,,BKN250,0.00,0.00,VWS V14.01,2013-06-06 03:17:00,
2013-06-05 23:22:00,60.2,51.2,29.88,SSE,161,0.0,0.0,72,0.00,,BKN250,0.00,0.00,VWS V14.01,2013-06-06 03:22:00,
2013-06-05 23:27:00,60.1,51.1,29.88,SSE,162,0.0,0.0,72,0.00,,BKN250,0.00,0.00,VWS V14.01,2013-06-06 03:27:00,
2013-06-05 23:32:00,59.9,50.9,29.87,SSE,161,0.0,0.0,72,0.00,,BKN250,0.00,0.00,VWS V14.01,2013-06-06 03:32:00,
2013-06-05 23:37:00,59.9,50.9,29.87,South,169,0.0,0.0,72,0.00,,BKN250,0.00,0.00,VWS V14.01,2013-06-06 03:37:00,
2013-06-05 23:42:00,59.8,50.8,29.87,South,169,0.0,0.0,72,0.00,,BKN250,0.00,0.00,VWS V14.01,2013-06-06 03:42:00,
2013-06-05 23:47:00,59.6,50.6,29.87,South,169,0.0,0.0,72,0.00,,BKN250,0.00,0.00,VWS V14.01,2013-06-06 03:47:00,
2013-06-05 23:52:00,59.5,50.1,29.87,ESE,107,1.0,2.0,71,0.00,,BKN250,0.00,0.00,VWS V14.01,2013-06-06 03:52:00,
2013-06-05 23:57:00,59.5,49.7,29.87,SE,126,0.0,2.0,70,0.00,,BKN250,0.00,0.00,VWS V14.01,2013-06-06 03:57:00,